createdAt,value
2023-04-02T00:01:37.937Z,6.06
2023-04-02T00:04:23.387Z,6.05
2023-04-02T00:07:01.394Z,6.06
2023-04-02T00:09:37.973Z,6.08
2023-04-02T00:12:20.854Z,6.10
2023-04-02T00:14:57.965Z,6.11
2023-04-02T00:17:31.042Z,6.10
2023-04-02T00:20:08.577Z,6.09
2023-04-02T00:22:45.879Z,6.11
2023-04-02T00:25:19.479Z,6.08
2023-04-02T00:27:52.929Z,6.08
2023-04-02T00:30:25.688Z,6.09
2023-04-02T00:33:00.774Z,6.10
2023-04-02T00:35:33.335Z,6.09
2023-04-02T00:38:06.898Z,6.09
2023-04-02T00:40:41.398Z,6.07
2023-04-02T00:43:17.002Z,6.06
2023-04-02T00:45:52.964Z,6.03
2023-04-02T00:49:10.893Z,6.03
2023-04-02T00:52:05.051Z,6.02
2023-04-02T00:54:47.033Z,6.03
2023-04-02T00:57:26.308Z,6.04
2023-04-02T01:00:23.273Z,6.08
2023-04-02T01:03:24.070Z,6.09
2023-04-02T01:06:19.129Z,6.09
2023-04-02T01:09:12.754Z,6.07
2023-04-02T01:11:54.102Z,6.05
2023-04-02T01:14:51.395Z,6.00
2023-04-02T01:17:52.859Z,5.98
2023-04-02T01:20:51.490Z,5.96
2023-04-02T01:23:37.568Z,5.96
2023-04-02T01:26:27.525Z,5.96
2023-04-02T01:29:27.932Z,5.97
2023-04-02T01:32:05.242Z,5.97
2023-04-02T01:34:39.252Z,5.94
2023-04-02T01:37:49.528Z,5.92
2023-04-02T01:40:30.168Z,5.90
2023-04-02T01:43:32.209Z,5.88
2023-04-02T01:46:27.556Z,5.84
2023-04-02T01:49:08.239Z,5.83
2023-04-02T01:51:48.802Z,5.80
2023-04-02T01:54:24.238Z,5.78
2023-04-02T01:56:57.582Z,5.77
2023-04-02T01:59:33.561Z,5.76
2023-04-02T02:02:12.935Z,5.72
2023-04-02T02:04:46.553Z,5.69
2023-04-02T02:07:21.837Z,5.67
2023-04-02T02:09:56.854Z,5.66
2023-04-02T02:12:30.025Z,5.64
2023-04-02T02:15:02.900Z,5.63
2023-04-02T02:17:36.480Z,5.61
2023-04-02T02:20:12.578Z,5.60
2023-04-02T02:22:49.875Z,5.57
2023-04-02T02:25:29.423Z,5.54
2023-04-02T02:28:18.346Z,5.51
2023-04-02T02:31:04.467Z,5.47
2023-04-02T02:33:50.629Z,5.41
2023-04-02T02:36:33.071Z,5.37
2023-04-02T02:39:34.966Z,5.35
2023-04-02T02:42:21.409Z,5.35
2023-04-02T02:44:55.081Z,5.36
2023-04-02T02:47:35.715Z,5.37
2023-04-02T02:50:18.321Z,5.38
2023-04-02T02:52:57.223Z,5.39
2023-04-02T02:55:37.744Z,5.35
2023-04-02T02:58:28.781Z,5.34
2023-04-02T03:01:09.089Z,5.35
2023-04-02T03:03:45.154Z,5.34
2023-04-02T03:06:21.380Z,5.34
2023-04-02T03:09:06.325Z,5.34
2023-04-02T03:11:45.835Z,5.36
2023-04-02T03:14:46.790Z,5.38
2023-04-02T03:17:39.797Z,5.35
2023-04-02T03:20:39.106Z,5.33
2023-04-02T03:23:31.705Z,5.31
2023-04-02T03:26:09.270Z,5.32
2023-04-02T03:29:02.773Z,5.33
2023-04-02T03:31:49.760Z,5.33
2023-04-02T03:34:33.027Z,5.32
2023-04-02T03:37:14.437Z,5.33
2023-04-02T03:40:08.339Z,5.32
2023-04-02T03:42:56.891Z,5.31
2023-04-02T03:45:37.552Z,5.25
2023-04-02T03:48:27.552Z,5.22
2023-04-02T03:51:20.247Z,5.21
2023-04-02T03:53:53.954Z,5.19
2023-04-02T03:56:39.214Z,5.19
2023-04-02T03:59:30.724Z,5.20
2023-04-02T04:02:24.007Z,5.21
2023-04-02T04:04:58.477Z,5.20
2023-04-02T04:07:41.612Z,5.17
2023-04-02T04:10:21.475Z,5.15
2023-04-02T04:12:57.221Z,5.14
2023-04-02T04:16:02.309Z,5.14
2023-04-02T04:18:43.281Z,5.18
2023-04-02T04:21:33.588Z,5.21
2023-04-02T04:24:23.437Z,5.24
2023-04-02T04:27:09.698Z,5.31
2023-04-02T04:29:59.022Z,5.38
2023-04-02T04:32:42.980Z,5.46
2023-04-02T04:35:36.043Z,5.55
2023-04-02T04:38:22.147Z,5.63
2023-04-02T04:41:01.810Z,5.72
2023-04-02T04:43:53.130Z,5.80
2023-04-02T04:46:33.771Z,5.85
2023-04-02T04:49:20.860Z,5.91
2023-04-02T04:52:01.020Z,5.96
2023-04-02T04:54:39.095Z,6.01
2023-04-02T04:57:32.238Z,6.06
2023-04-02T05:00:26.600Z,6.10
2023-04-02T05:03:09.502Z,6.16
2023-04-02T05:05:43.730Z,6.25
2023-04-02T05:08:31.081Z,6.33
2023-04-02T05:11:12.141Z,6.42
2023-04-02T05:13:56.731Z,6.51
2023-04-02T05:16:35.154Z,6.59
2023-04-02T05:19:22.173Z,6.68
2023-04-02T05:22:06.531Z,6.75
2023-04-02T05:24:50.747Z,6.84
2023-04-02T05:27:32.035Z,6.90
2023-04-02T05:30:28.055Z,6.98
2023-04-02T05:33:10.327Z,7.05
2023-04-02T05:35:47.786Z,7.09
2023-04-02T05:38:24.594Z,7.11
2023-04-02T05:41:08.604Z,7.14
2023-04-02T05:43:46.689Z,7.16
2023-04-02T05:46:27.525Z,7.22
2023-04-02T05:49:01.809Z,7.29
2023-04-02T05:51:43.395Z,7.40
2023-04-02T05:54:35.405Z,7.52
2023-04-02T05:57:13.076Z,7.61
2023-04-02T05:59:58.121Z,7.70
2023-04-02T06:02:45.348Z,7.76
2023-04-02T06:05:23.181Z,7.81
2023-04-02T06:08:09.748Z,7.80
2023-04-02T06:10:56.234Z,7.79
2023-04-02T06:13:31.424Z,7.75
2023-04-02T06:16:06.110Z,7.71
2023-04-02T06:18:39.547Z,7.70
2023-04-02T06:21:16.818Z,7.68
2023-04-02T06:23:58.876Z,7.67
2023-04-02T06:26:40.394Z,7.71
2023-04-02T06:29:36.224Z,7.78
2023-04-02T06:32:12.574Z,7.85
2023-04-02T06:34:47.252Z,7.90
2023-04-02T06:37:43.029Z,7.97
2023-04-02T06:40:48.639Z,8.04
2023-04-02T06:43:37.069Z,8.11
2023-04-02T06:46:43.102Z,8.20
2023-04-02T06:49:34.610Z,8.32
2023-04-02T06:52:28.584Z,8.46
2023-04-02T06:55:02.168Z,8.61
2023-04-02T06:57:36.165Z,8.73
2023-04-02T07:00:15.027Z,8.81
2023-04-02T07:02:48.457Z,8.90
2023-04-02T07:05:21.543Z,8.98
2023-04-02T07:07:55.956Z,9.08
2023-04-02T07:10:29.063Z,9.15
2023-04-02T07:13:02.780Z,9.23
2023-04-02T07:15:36.571Z,9.35
2023-04-02T07:18:13.092Z,9.45
2023-04-02T07:20:46.602Z,9.54
2023-04-02T07:23:21.578Z,9.65
2023-04-02T07:25:57.808Z,9.71
2023-04-02T07:28:32.021Z,9.77
2023-04-02T07:31:05.357Z,9.82
2023-04-02T07:33:39.358Z,9.86
2023-04-02T07:36:19.530Z,9.90
2023-04-02T07:38:53.564Z,9.97
2023-04-02T07:41:27.922Z,10.04
2023-04-02T07:44:00.494Z,10.14
2023-04-02T07:46:33.727Z,10.22
2023-04-02T07:49:06.723Z,10.30
2023-04-02T07:51:39.823Z,10.42
2023-04-02T07:54:13.335Z,10.55
2023-04-02T07:56:46.782Z,10.68
2023-04-02T07:59:19.563Z,10.83
2023-04-02T08:01:54.809Z,10.97
2023-04-02T08:04:28.118Z,11.13
2023-04-02T08:07:02.244Z,11.25
2023-04-02T08:09:35.876Z,11.36
2023-04-02T08:12:10.359Z,11.43
2023-04-02T08:14:44.002Z,11.46
2023-04-02T08:17:17.137Z,11.47
2023-04-02T08:19:55.094Z,11.51
2023-04-02T08:22:28.021Z,11.56
2023-04-02T08:25:00.979Z,11.63
2023-04-02T08:27:35.312Z,11.70
2023-04-02T08:30:09.839Z,11.77
2023-04-02T08:32:43.489Z,11.85
2023-04-02T08:35:18.560Z,11.93
2023-04-02T08:37:53.134Z,12.01
2023-04-02T08:40:40.277Z,12.08
2023-04-02T08:43:42.354Z,12.16
2023-04-02T08:46:43.294Z,12.25
2023-04-02T08:49:29.754Z,12.36
2023-04-02T08:52:02.722Z,12.46
2023-04-02T08:54:42.887Z,12.55
2023-04-02T08:57:39.835Z,12.66
2023-04-02T09:00:34.176Z,12.78
2023-04-02T09:03:32.210Z,12.93
2023-04-02T09:06:06.611Z,13.07
2023-04-02T09:08:39.992Z,13.17
2023-04-02T09:11:38.760Z,13.25
2023-04-02T09:14:21.422Z,13.32
2023-04-02T09:17:01.882Z,13.38
2023-04-02T09:19:45.279Z,13.47
2023-04-02T09:22:30.320Z,13.53
2023-04-02T09:25:06.735Z,13.57
2023-04-02T09:27:40.878Z,13.60
2023-04-02T09:30:46.225Z,13.64
2023-04-02T09:33:19.516Z,13.68
2023-04-02T09:35:56.846Z,13.70
2023-04-02T09:38:32.658Z,13.75
2023-04-02T09:41:08.395Z,13.83
2023-04-02T09:43:41.801Z,13.92
2023-04-02T09:46:25.093Z,13.98
2023-04-02T09:49:02.734Z,14.00
2023-04-02T09:51:36.816Z,14.02
2023-04-02T09:54:19.146Z,14.05
2023-04-02T09:57:04.931Z,14.12
2023-04-02T09:59:38.034Z,14.14
2023-04-02T10:02:27.764Z,14.16
2023-04-02T10:05:04.386Z,14.19
2023-04-02T10:07:51.141Z,14.15
2023-04-02T10:10:33.976Z,14.12
2023-04-02T10:13:23.852Z,14.15
2023-04-02T10:16:14.137Z,14.18
2023-04-02T10:18:58.048Z,14.23
2023-04-02T10:21:39.324Z,14.26
2023-04-02T10:24:18.259Z,14.32
2023-04-02T10:27:21.629Z,14.35
2023-04-02T10:30:19.468Z,14.38
2023-04-02T10:33:02.297Z,14.38
2023-04-02T10:35:59.518Z,14.42
2023-04-02T10:38:46.273Z,14.45
2023-04-02T10:41:47.476Z,14.46
2023-04-02T10:44:31.415Z,14.47
2023-04-02T10:47:23.735Z,14.47
2023-04-02T10:50:07.030Z,14.48
2023-04-02T10:52:51.242Z,14.56
2023-04-02T10:55:29.558Z,14.59
2023-04-02T10:58:07.442Z,14.62
2023-04-02T11:00:42.990Z,14.63
2023-04-02T11:03:26.984Z,14.62
2023-04-02T11:06:04.149Z,14.65
2023-04-02T11:08:50.289Z,14.68
2023-04-02T11:11:30.342Z,14.68
2023-04-02T11:14:28.433Z,14.68
2023-04-02T11:17:05.983Z,14.68
2023-04-02T11:19:39.299Z,14.67
2023-04-02T11:22:22.835Z,14.67
2023-04-02T11:24:57.302Z,14.64
2023-04-02T11:27:36.731Z,14.62
2023-04-02T11:30:26.307Z,14.63
2023-04-02T11:33:04.732Z,14.65
2023-04-02T11:35:41.131Z,14.69
2023-04-02T11:38:26.522Z,14.70
2023-04-02T11:41:00.580Z,14.75
2023-04-02T11:43:38.602Z,14.76
2023-04-02T11:46:33.004Z,14.73
2023-04-02T11:49:36.787Z,14.72
2023-04-02T11:52:25.959Z,14.69
2023-04-02T11:55:06.850Z,14.72
2023-04-02T11:57:59.408Z,14.74
2023-04-02T12:00:55.407Z,14.77
2023-04-02T12:03:38.911Z,14.79
2023-04-02T12:06:48.278Z,14.82
2023-04-02T12:09:29.931Z,14.89
2023-04-02T12:12:10.558Z,14.94
2023-04-02T12:15:00.110Z,14.96
2023-04-02T13:50:44.919Z,13.17
2023-04-02T13:53:25.175Z,13.26
2023-04-02T13:55:58.638Z,13.30
2023-04-02T13:58:32.571Z,13.31
2023-04-02T14:01:06.387Z,13.32
2023-04-02T14:03:41.009Z,13.35
2023-04-02T14:06:45.980Z,13.34
2023-04-02T14:09:31.723Z,13.33
2023-04-02T14:12:27.063Z,13.29
2023-04-02T14:15:21.412Z,13.25
2023-04-02T14:18:32.123Z,13.23
2023-04-02T14:21:27.957Z,13.16
2023-04-02T14:24:21.059Z,13.16
2023-04-02T14:27:22.308Z,13.14
2023-04-02T14:30:25.215Z,13.12
2023-04-02T14:33:24.287Z,13.08
2023-04-02T14:36:20.201Z,13.05
2023-04-02T14:39:00.835Z,13.02
2023-04-02T14:42:07.478Z,12.98
2023-04-02T14:44:49.060Z,12.94
2023-04-02T14:47:32.545Z,12.87
2023-04-02T14:50:21.249Z,12.83
2023-04-02T14:53:03.501Z,12.80
2023-04-02T14:55:44.043Z,12.75
2023-04-02T14:58:22.207Z,12.71
2023-04-02T15:01:12.276Z,12.66
2023-04-02T15:03:57.547Z,12.63
2023-04-02T15:06:41.217Z,12.61
2023-04-02T15:09:24.163Z,12.56
2023-04-02T15:12:11.375Z,12.53
2023-04-02T15:14:49.125Z,12.49
2023-04-02T15:17:23.101Z,12.46
2023-04-02T15:20:01.113Z,12.42
2023-04-02T15:22:39.517Z,12.41
2023-04-02T15:25:35.483Z,12.36
2023-04-02T15:28:57.245Z,12.30
2023-04-02T15:31:30.854Z,12.26
2023-04-02T15:34:14.318Z,12.20
2023-04-02T15:37:17.445Z,12.17
2023-04-02T15:40:29.124Z,12.11
2023-04-02T15:43:32.151Z,12.04
2023-04-02T15:46:25.419Z,11.99
2023-04-02T15:49:12.253Z,11.93
2023-04-02T15:51:53.130Z,11.90
2023-04-02T15:54:58.962Z,11.84
2023-04-02T15:58:06.711Z,11.81
2023-04-02T16:00:59.643Z,11.74
2023-04-02T16:04:12.737Z,11.67
2023-04-02T16:07:10.368Z,11.63
2023-04-02T16:10:10.183Z,11.53
2023-04-02T16:12:44.275Z,11.48
2023-04-02T16:15:25.052Z,11.43
2023-04-02T16:18:05.418Z,11.39
2023-04-02T16:20:42.963Z,11.35
2023-04-02T16:23:24.960Z,11.31
2023-04-02T16:26:05.314Z,11.30
2023-04-02T16:29:01.314Z,11.28
2023-04-02T16:31:52.133Z,11.26
2023-04-02T16:34:47.142Z,11.22
2023-04-02T16:37:34.993Z,11.21
2023-04-02T16:40:47.720Z,11.22
2023-04-02T16:43:35.609Z,11.22
2023-04-02T16:46:38.207Z,11.28
2023-04-02T16:49:04.581Z,11.30
2023-04-02T16:51:48.147Z,11.32
2023-04-02T16:54:42.010Z,11.32
2023-04-02T16:57:21.525Z,11.32
2023-04-02T17:00:17.746Z,11.31
2023-04-02T17:03:08.830Z,11.29
2023-04-02T17:05:52.749Z,11.28
2023-04-02T17:08:50.888Z,11.27
2023-04-02T17:11:49.149Z,11.24
2023-04-02T17:14:41.581Z,11.21
2023-04-02T17:17:16.369Z,11.22
2023-04-02T17:19:52.855Z,11.25
2023-04-02T17:22:26.076Z,11.25
2023-04-02T17:25:04.870Z,11.26
2023-04-02T17:27:44.528Z,11.25
2023-04-02T17:30:42.528Z,11.19
2023-04-02T17:33:22.386Z,11.17
2023-04-02T17:36:22.558Z,11.12
2023-04-02T17:39:30.349Z,11.11
2023-04-02T17:42:38.172Z,11.08
2023-04-02T17:45:39.297Z,11.05
2023-04-02T17:48:38.210Z,11.00
2023-04-02T17:51:53.653Z,10.96
2023-04-02T17:54:49.732Z,10.86
2023-04-02T17:57:42.415Z,10.76
2023-04-02T18:00:46.178Z,10.67
2023-04-02T18:03:53.116Z,10.60
2023-04-02T18:07:08.779Z,10.53
2023-04-02T18:10:01.874Z,10.46
2023-04-02T18:13:08.767Z,10.40
2023-04-02T18:15:50.612Z,10.36
2023-04-02T18:19:08.790Z,10.28
2023-04-02T18:22:16.361Z,10.21
2023-04-02T18:25:15.447Z,10.11
2023-04-02T18:28:34.638Z,10.03
2023-04-02T18:31:27.285Z,9.96
2023-04-02T18:34:14.031Z,9.88
2023-04-02T18:37:17.210Z,9.84
2023-04-02T18:40:10.149Z,9.81
2023-04-02T18:43:06.310Z,9.77
2023-04-02T18:46:20.292Z,9.74
2023-04-02T18:49:00.742Z,9.73
2023-04-02T18:51:37.287Z,9.69
2023-04-02T18:54:17.734Z,9.64
2023-04-02T18:56:52.355Z,9.62
2023-04-02T18:59:48.237Z,9.61
2023-04-02T19:02:46.331Z,9.63
2023-04-02T19:05:53.449Z,9.60
2023-04-02T19:09:01.375Z,9.60
2023-04-02T19:11:34.465Z,9.59
2023-04-02T19:14:14.492Z,9.58
2023-04-02T19:17:04.202Z,9.54
2023-04-02T19:19:44.432Z,9.50
2023-04-02T19:22:35.352Z,9.47
2023-04-02T19:25:47.656Z,9.45
2023-04-02T19:28:37.695Z,9.43
2023-04-02T19:31:39.360Z,9.40
2023-04-02T19:34:23.241Z,9.39
2023-04-02T19:37:15.280Z,9.39
2023-04-02T19:40:14.368Z,9.35
2023-04-02T19:42:55.658Z,9.36
2023-04-02T19:45:44.132Z,9.32
2023-04-02T19:48:21.890Z,9.30
2023-04-02T19:50:55.640Z,9.27
2023-04-02T19:53:29.122Z,9.23
2023-04-02T19:56:02.477Z,9.22
2023-04-02T19:58:36.947Z,9.18
2023-04-02T20:01:10.474Z,9.16
2023-04-02T20:03:43.851Z,9.15
2023-04-02T20:06:17.426Z,9.17
2023-04-02T20:08:50.927Z,9.19
2023-04-02T20:11:23.807Z,9.23
2023-04-02T20:13:57.457Z,9.27
2023-04-02T20:16:30.451Z,9.31
2023-04-02T20:19:03.600Z,9.33
2023-04-02T20:21:38.864Z,9.36
2023-04-02T20:24:13.940Z,9.38
2023-04-02T20:26:46.795Z,9.40
2023-04-02T20:29:20.495Z,9.41
2023-04-02T20:31:53.762Z,9.43
2023-04-02T20:34:26.878Z,9.41
2023-04-02T20:37:00.422Z,9.38
2023-04-02T20:39:33.491Z,9.35
2023-04-02T20:42:06.471Z,9.29
2023-04-02T20:44:41.705Z,9.23
2023-04-02T20:47:16.182Z,9.20
2023-04-02T20:49:50.697Z,9.18
2023-04-02T20:52:24.643Z,9.18
2023-04-02T20:54:57.764Z,9.19
2023-04-02T20:57:33.808Z,9.20
2023-04-02T21:00:11.225Z,9.24
2023-04-02T21:02:44.919Z,9.27
2023-04-02T21:05:17.747Z,9.32
2023-04-02T21:07:50.696Z,9.35
2023-04-02T21:10:23.524Z,9.39
2023-04-02T21:12:57.230Z,9.42
2023-04-02T21:15:30.292Z,9.45
2023-04-02T21:18:04.025Z,9.48
2023-04-02T21:20:38.185Z,9.51
2023-04-02T21:23:11.389Z,9.54
2023-04-02T21:25:44.350Z,9.56
2023-04-02T21:28:17.165Z,9.56
2023-04-02T21:30:50.181Z,9.57
2023-04-02T21:33:23.662Z,9.56
2023-04-02T21:35:57.219Z,9.57
2023-04-02T21:38:30.165Z,9.56
2023-04-02T21:41:15.895Z,9.55
2023-04-02T21:43:49.285Z,9.57
2023-04-02T21:46:25.948Z,9.56
2023-04-02T21:49:01.332Z,9.54
2023-04-02T21:51:34.532Z,9.53
2023-04-02T21:54:08.758Z,9.53
2023-04-02T21:56:44.946Z,9.51
2023-04-02T21:59:19.390Z,9.51
2023-04-02T22:01:54.595Z,9.51
2023-04-02T22:04:29.838Z,9.52
2023-04-02T22:07:02.906Z,9.51
2023-04-02T22:09:35.832Z,9.50
2023-04-02T22:12:09.925Z,9.50
2023-04-02T22:14:43.873Z,9.48
2023-04-02T22:17:17.219Z,9.47
2023-04-02T22:19:51.040Z,9.46
2023-04-02T22:22:24.142Z,9.45
2023-04-02T22:24:56.950Z,9.43
2023-04-02T22:27:30.270Z,9.41
2023-04-02T22:30:03.705Z,9.40
2023-04-02T22:32:39.738Z,9.39
2023-04-02T22:35:12.844Z,9.36
2023-04-02T22:37:46.099Z,9.32
2023-04-02T22:40:19.441Z,9.30
2023-04-02T22:42:52.453Z,9.29
2023-04-02T22:45:25.550Z,9.23
2023-04-02T22:47:58.384Z,9.21
2023-04-02T22:50:31.909Z,9.17
2023-04-02T22:53:05.067Z,9.14
2023-04-02T22:55:37.959Z,9.11
2023-04-02T22:58:10.864Z,9.10
2023-04-02T23:00:44.636Z,9.07
2023-04-02T23:03:18.689Z,9.06
2023-04-02T23:06:01.620Z,9.04
2023-04-02T23:08:35.424Z,9.03
2023-04-02T23:11:22.482Z,9.02
2023-04-02T23:13:58.787Z,9.01
2023-04-02T23:16:31.769Z,8.97
2023-04-02T23:19:05.238Z,8.93
2023-04-02T23:21:38.788Z,8.92
2023-04-02T23:24:14.241Z,8.90
2023-04-02T23:26:47.993Z,8.89
2023-04-02T23:29:20.749Z,8.89
2023-04-02T23:31:54.589Z,8.88
2023-04-02T23:34:27.964Z,8.87
2023-04-02T23:37:00.902Z,8.85
2023-04-02T23:39:34.142Z,8.83
2023-04-02T23:42:07.822Z,8.81
2023-04-02T23:44:41.240Z,8.81
2023-04-02T23:47:14.138Z,8.80
2023-04-02T23:49:48.154Z,8.77
2023-04-02T23:52:21.141Z,8.78
2023-04-02T23:54:54.320Z,8.77
2023-04-02T23:57:28.822Z,8.79
